Time;durP1;ratioP1;P1;durP2;ratioP2;P2;SDS_P1;SDS_P2;PMS_P1;PMS_P2;Temp;Humidity;BMP_temperature;BMP_pressure;BME280_temperature;BME280_humidity;BME280_pressure;Samples;Min_cycle;Max_cycle;Signal;HPM_P1;HPM_P2
2024/04/13 04:00:51;;;;;;;1.57;1.57;;;12.10;99.90;;;;;;6111076;21;20595;-72
2024/04/13 04:03:17;;;;;;;2.83;2.10;;;12.20;99.90;;;;;;5255371;27;20460;-75
2024/04/13 04:05:45;;;;;;;3.50;1.67;;;12.20;99.90;;;;;;5256342;27;20524;-73
2024/04/13 04:08:11;;;;;;;2.90;2.80;;;12.10;99.90;;;;;;5249418;27;20253;-73
2024/04/13 04:10:40;;;;;;;2.00;1.87;;;12.10;99.90;;;;;;5242362;27;20487;-72
2024/04/13 04:13:06;;;;;;;1.90;1.80;;;12.10;99.90;;;;;;5243594;27;20532;-72
2024/04/13 04:15:35;;;;;;;2.73;2.43;;;12.10;99.90;;;;;;5243481;27;21041;-73
2024/04/13 04:18:03;;;;;;;2.43;2.33;;;12.10;99.90;;;;;;5242650;27;20287;-72
2024/04/13 04:20:33;;;;;;;1.83;1.73;;;12.10;99.90;;;;;;5243015;27;20548;-72
2024/04/13 04:22:59;;;;;;;1.93;1.83;;;12.10;99.90;;;;;;5241440;27;20499;-72
2024/04/13 04:25:28;;;;;;;2.80;2.70;;;12.00;99.90;;;;;;5243694;27;20484;-73
2024/04/13 04:27:55;;;;;;;3.47;2.10;;;12.10;99.90;;;;;;5244229;27;20587;-73
2024/04/13 04:30:23;;;;;;;2.60;2.50;;;12.10;99.90;;;;;;5242488;27;20476;-73
2024/04/13 04:32:49;;;;;;;2.60;2.40;;;12.10;99.90;;;;;;5242057;27;20471;-71
2024/04/13 04:35:20;;;;;;;3.17;2.97;;;12.20;99.90;;;;;;5243632;27;20556;-73
2024/04/13 04:37:46;;;;;;;2.70;2.50;;;12.20;99.90;;;;;;5240941;27;20245;-73
2024/04/13 04:40:15;;;;;;;4.70;2.90;;;12.20;99.90;;;;;;5231073;27;21035;-72
2024/04/13 04:42:41;;;;;;;2.17;2.07;;;12.20;99.90;;;;;;5239988;27;20563;-72
2024/04/13 04:45:10;;;;;;;2.40;2.20;;;12.30;99.90;;;;;;5256955;27;20465;-73
2024/04/13 04:47:36;;;;;;;2.50;2.40;;;12.30;99.90;;;;;;5235189;27;20814;-73
2024/04/13 04:50:04;;;;;;;3.20;2.83;;;12.30;99.90;;;;;;5254466;27;20479;-73
2024/04/13 04:52:33;;;;;;;2.63;2.43;;;12.30;99.90;;;;;;5239022;27;20255;-73
2024/04/13 04:55:01;;;;;;;5.03;2.63;;;12.30;99.90;;;;;;5265067;27;20470;-72
2024/04/13 04:57:28;;;;;;;2.77;2.07;;;12.30;99.90;;;;;;5251146;27;20821;-73
2024/04/13 04:59:56;;;;;;;1.90;1.80;;;12.30;99.90;;;;;;5274148;27;20898;-73
2024/04/13 05:02:22;;;;;;;2.97;2.87;;;12.30;99.90;;;;;;5242497;27;21025;-73
2024/04/13 05:04:50;;;;;;;2.20;2.10;;;12.30;99.90;;;;;;5246856;27;20555;-73
2024/04/13 05:07:16;;;;;;;6.77;3.27;;;12.20;99.90;;;;;;5272725;27;20239;-72
2024/04/13 05:09:47;;;;;;;2.53;2.17;;;12.20;99.90;;;;;;5243002;27;20480;-73
2024/04/13 05:12:13;;;;;;;5.60;3.00;;;12.30;99.90;;;;;;5240700;27;20248;-74
2024/04/13 05:14:41;;;;;;;1.63;1.60;;;12.30;99.90;;;;;;5242844;27;20480;-73
2024/04/13 05:17:07;;;;;;;3.90;2.40;;;12.30;99.90;;;;;;5242995;27;20302;-72
2024/04/13 05:19:38;;;;;;;3.00;2.50;;;12.40;99.90;;;;;;5252677;27;20487;-73
2024/04/13 05:22:04;;;;;;;4.60;2.63;;;12.40;99.90;;;;;;5239214;27;20540;-73
2024/04/13 05:24:33;;;;;;;4.53;3.67;;;12.50;99.90;;;;;;5247015;27;20591;-72
2024/04/13 05:27:06;;;;;;;2.83;2.67;;;12.50;99.90;;;;;;5261359;27;20470;-73
2024/04/13 05:29:35;;;;;;;3.37;2.77;;;12.60;99.90;;;;;;5240612;27;20460;-73
2024/04/13 05:32:01;;;;;;;3.93;2.83;;;12.60;99.90;;;;;;5238473;27;20615;-73
2024/04/13 05:34:30;;;;;;;2.70;2.50;;;12.70;99.90;;;;;;5268632;27;20470;-73
2024/04/13 05:36:56;;;;;;;4.70;2.13;;;12.80;99.90;;;;;;5250360;27;20607;-73
2024/04/13 05:39:24;;;;;;;3.20;3.00;;;12.90;99.90;;;;;;5270131;27;20574;-73
2024/04/13 05:41:50;;;;;;;6.40;3.00;;;13.00;99.90;;;;;;5234177;27;20366;-73
2024/04/13 05:44:21;;;;;;;2.07;2.03;;;13.00;99.90;;;;;;5265264;27;20478;-73
2024/04/13 05:46:46;;;;;;;4.13;2.43;;;13.20;99.90;;;;;;5255210;27;20274;-72
2024/04/13 05:49:16;;;;;;;3.27;2.67;;;13.20;99.90;;;;;;5262813;27;20810;-73
2024/04/13 05:51:42;;;;;;;3.20;2.90;;;13.30;99.90;;;;;;5240051;27;20291;-73
2024/04/13 05:54:10;;;;;;;4.60;4.17;;;13.40;99.90;;;;;;5254377;27;20528;-73
2024/04/13 05:56:36;;;;;;;3.17;2.33;;;13.50;99.90;;;;;;5241433;27;20519;-72
2024/04/13 05:59:04;;;;;;;2.93;2.73;;;13.50;99.90;;;;;;5247327;27;20474;-73
2024/04/13 06:01:34;;;;;;;3.20;2.80;;;13.60;99.90;;;;;;5237677;27;20311;-72
2024/04/13 06:04:02;;;;;;;3.37;2.90;;;13.70;99.90;;;;;;5251225;27;20518;-72
2024/04/13 06:06:28;;;;;;;3.33;2.60;;;13.90;99.90;;;;;;5239731;27;20476;-72
2024/04/13 06:08:56;;;;;;;3.20;2.80;;;14.10;99.90;;;;;;5254216;27;20507;-72
2024/04/13 06:11:22;;;;;;;4.13;2.30;;;14.30;99.90;;;;;;5242142;27;20683;-73
2024/04/13 06:13:50;;;;;;;3.27;3.07;;;14.40;99.90;;;;;;5262816;27;20589;-73
2024/04/13 06:16:16;;;;;;;2.43;2.37;;;14.50;99.90;;;;;;5255247;27;20244;-73
2024/04/13 06:18:47;;;;;;;3.20;3.00;;;14.60;99.90;;;;;;5243156;27;20463;-74
2024/04/13 06:21:13;;;;;;;4.20;2.40;;;14.70;99.90;;;;;;5240547;27;20252;-75
2024/04/13 06:23:42;;;;;;;3.30;1.70;;;14.70;99.90;;;;;;5261225;27;20602;-74
2024/04/13 06:26:07;;;;;;;1.90;1.77;;;14.80;99.90;;;;;;5240495;27;20244;-74
2024/04/13 06:28:36;;;;;;;2.13;2.03;;;14.90;99.90;;;;;;5251901;27;21058;-74
2024/04/13 06:31:02;;;;;;;4.40;2.27;;;14.90;99.90;;;;;;5262442;27;20572;-74
2024/04/13 06:33:30;;;;;;;2.80;2.60;;;15.00;99.90;;;;;;5252643;27;20611;-74
2024/04/13 06:35:59;;;;;;;2.90;2.13;;;15.00;99.90;;;;;;5260894;27;20483;-74
2024/04/13 06:38:27;;;;;;;2.87;2.30;;;15.10;99.90;;;;;;5253824;27;20474;-73
2024/04/13 06:40:54;;;;;;;4.50;2.80;;;15.10;99.90;;;;;;5244330;27;20484;-74
2024/04/13 06:43:22;;;;;;;6.23;3.13;;;15.10;99.90;;;;;;5241738;27;20533;-74
2024/04/13 06:45:48;;;;;;;2.83;2.67;;;15.20;99.90;;;;;;5247617;27;20482;-74
2024/04/13 06:48:17;;;;;;;1.67;1.67;;;15.10;99.90;;;;;;5243084;27;20605;-74
2024/04/13 06:50:43;;;;;;;1.90;1.80;;;15.20;99.90;;;;;;5242062;27;20486;-73
2024/04/13 06:53:14;;;;;;;3.30;2.60;;;15.30;99.90;;;;;;5272118;27;20486;-73
2024/04/13 06:55:40;;;;;;;1.73;1.63;;;15.40;99.90;;;;;;5241410;27;20559;-74
2024/04/13 06:58:09;;;;;;;2.30;1.80;;;15.40;99.90;;;;;;5249997;27;20474;-74
2024/04/13 07:00:35;;;;;;;3.23;2.50;;;15.40;99.90;;;;;;5264052;27;20889;-73
2024/04/13 07:03:04;;;;;;;2.43;2.27;;;15.50;99.90;;;;;;5262830;27;20482;-71
2024/04/13 07:05:29;;;;;;;2.93;2.53;;;15.60;99.90;;;;;;5254345;27;20531;-74
2024/04/13 07:07:58;;;;;;;1.90;1.80;;;15.60;99.90;;;;;;5248603;27;20474;-73
2024/04/13 07:10:26;;;;;;;2.53;2.33;;;15.70;99.90;;;;;;5254339;27;20376;-73
2024/04/13 07:12:55;;;;;;;3.10;2.60;;;15.80;99.90;;;;;;5239046;27;20587;-73
2024/04/13 07:15:20;;;;;;;3.00;2.20;;;15.90;99.90;;;;;;5240683;27;20519;-73
2024/04/13 07:17:49;;;;;;;2.33;2.10;;;15.90;99.90;;;;;;5241149;27;20971;-73
2024/04/13 07:20:15;;;;;;;1.97;1.87;;;15.90;99.90;;;;;;5265486;27;21024;-73
2024/04/13 07:22:43;;;;;;;1.80;1.80;;;16.00;99.90;;;;;;5241298;27;20492;-73
2024/04/13 07:25:09;;;;;;;2.03;1.93;;;16.10;99.90;;;;;;5240118;27;20479;-73
2024/04/13 07:27:40;;;;;;;2.50;2.20;;;16.20;99.90;;;;;;5243972;27;20472;-73
2024/04/13 07:30:07;;;;;;;3.43;1.77;;;16.20;99.90;;;;;;5257463;27;20286;-73
2024/04/13 07:32:36;;;;;;;2.37;2.27;;;16.30;99.90;;;;;;5240096;27;20558;-70
2024/04/13 07:35:02;;;;;;;2.40;2.30;;;16.30;99.90;;;;;;5238518;27;21037;-73
2024/04/13 07:37:30;;;;;;;2.20;2.10;;;16.40;99.90;;;;;;5253645;27;20557;-74
2024/04/13 07:39:56;;;;;;;2.57;2.37;;;16.40;99.90;;;;;;5250135;27;20904;-75
2024/04/13 07:42:24;;;;;;;1.40;1.40;;;16.50;99.90;;;;;;5251745;27;20492;-74
2024/04/13 07:44:53;;;;;;;1.70;1.47;;;16.60;99.90;;;;;;5256248;27;20259;-75
2024/04/13 07:47:22;;;;;;;1.87;1.77;;;16.70;99.90;;;;;;5251423;27;20518;-71
2024/04/13 07:49:48;;;;;;;2.00;1.97;;;16.70;99.90;;;;;;5245881;27;20482;-74
2024/04/13 07:52:16;;;;;;;3.43;2.63;;;16.60;99.90;;;;;;5241035;27;21059;-73
2024/04/13 07:54:42;;;;;;;2.60;2.20;;;16.70;99.90;;;;;;5256385;27;20949;-74
2024/04/13 07:57:10;;;;;;;1.70;1.60;;;16.80;99.90;;;;;;5237576;27;20493;-73
2024/04/13 07:59:36;;;;;;;3.40;3.03;;;16.80;99.90;;;;;;5242584;27;20248;-74
2024/04/13 08:02:07;;;;;;;2.73;2.33;;;16.90;99.90;;;;;;5256803;27;20943;-74
2024/04/13 08:04:33;;;;;;;2.30;2.20;;;17.00;99.90;;;;;;5248832;27;20524;-74
2024/04/13 08:07:01;;;;;;;3.10;2.90;;;17.00;99.90;;;;;;5259645;27;21013;-73
2024/04/13 08:09:27;;;;;;;2.50;2.30;;;17.10;99.90;;;;;;5258528;27;20239;-73
2024/04/13 08:11:57;;;;;;;4.87;2.00;;;17.10;99.90;;;;;;5261983;27;20537;-73
2024/04/13 08:14:23;;;;;;;2.37;2.00;;;17.20;99.90;;;;;;5254355;27;20244;-73
2024/04/13 08:16:51;;;;;;;2.93;2.73;;;17.30;99.90;;;;;;5256148;27;20470;-72
2024/04/13 08:19:19;;;;;;;2.30;2.10;;;17.40;99.90;;;;;;5251775;27;20483;-74
2024/04/13 08:21:48;;;;;;;3.00;2.33;;;17.50;99.90;;;;;;5244054;27;20530;-74
2024/04/13 08:24:14;;;;;;;2.67;2.47;;;17.70;99.90;;;;;;5251502;27;20580;-74
2024/04/13 08:26:42;;;;;;;2.80;2.70;;;17.80;99.90;;;;;;5238441;27;21005;-74
2024/04/13 08:29:08;;;;;;;2.93;2.70;;;17.90;99.90;;;;;;5251878;27;20240;-74
2024/04/13 08:31:36;;;;;;;1.97;1.87;;;17.90;99.90;;;;;;5250004;27;20475;-74
2024/04/13 08:34:03;;;;;;;3.23;3.03;;;17.90;99.90;;;;;;5243384;27;20479;-75
2024/04/13 08:36:34;;;;;;;3.03;2.83;;;18.00;99.90;;;;;;5236445;27;20607;-70
2024/04/13 08:39:00;;;;;;;2.63;2.50;;;17.90;99.90;;;;;;5237840;27;20524;-71
2024/04/13 08:41:38;;;;;;;2.97;2.77;;;18.00;99.90;;;;;;5235204;27;20480;-71
2024/04/13 08:44:03;;;;;;;3.00;2.60;;;18.00;99.90;;;;;;5245757;27;20354;-71
2024/04/13 08:46:33;;;;;;;7.20;3.50;;;17.90;99.90;;;;;;5250739;27;20480;-71
2024/04/13 08:49:01;;;;;;;2.70;2.57;;;17.90;99.90;;;;;;5244944;27;21004;-71
2024/04/13 08:51:34;;;;;;;5.63;2.77;;;17.90;99.90;;;;;;5253713;27;21292;-71
2024/04/13 08:54:00;;;;;;;2.67;2.57;;;18.00;99.90;;;;;;5244396;27;20761;-71
2024/04/13 08:56:28;;;;;;;3.00;2.70;;;18.10;99.90;;;;;;5239893;27;20610;-72
2024/04/13 08:59:06;;;;;;;2.80;2.67;;;18.20;99.90;;;;;;5262048;27;20474;-72
2024/04/13 09:01:36;;;;;;;2.57;2.47;;;18.20;99.90;;;;;;5237600;27;20562;-72
2024/04/13 09:04:03;;;;;;;5.33;2.67;;;18.00;99.90;;;;;;5237241;27;20496;-73
2024/04/13 09:06:34;;;;;;;3.53;3.20;;;18.00;99.90;;;;;;5243305;27;20618;-74
2024/04/13 09:09:08;;;;;;;3.17;2.87;;;18.00;99.90;;;;;;5239639;27;21176;-73
2024/04/13 09:11:36;;;;;;;2.67;2.53;;;17.90;99.90;;;;;;5231430;27;20522;-73
2024/04/13 09:14:02;;;;;;;2.53;2.43;;;17.90;99.90;;;;;;5255983;27;20938;-73
2024/04/13 09:16:31;;;;;;;2.40;2.23;;;17.90;99.90;;;;;;5262599;27;20489;-73
2024/04/13 09:18:57;;;;;;;3.00;2.63;;;17.90;99.90;;;;;;5227944;27;20492;-74
2024/04/13 09:21:27;;;;;;;2.70;2.53;;;17.90;99.90;;;;;;5238817;27;20527;-71
2024/04/13 09:23:56;;;;;;;2.93;2.60;;;17.90;99.90;;;;;;5228476;27;20483;-71
2024/04/13 09:26:25;;;;;;;2.50;2.40;;;18.00;99.90;;;;;;5246632;27;20791;-71
2024/04/13 09:28:51;;;;;;;2.23;2.13;;;18.10;99.90;;;;;;5223515;27;20662;-72
2024/04/13 09:31:20;;;;;;;2.50;2.30;;;18.20;99.90;;;;;;5236812;27;20559;-72
2024/04/13 09:33:48;;;;;;;2.53;2.43;;;18.20;99.90;;;;;;5237549;27;20527;-71
2024/04/13 09:36:22;;;;;;;2.30;2.27;;;18.10;99.90;;;;;;5255729;27;20478;-73
2024/04/13 09:38:48;;;;;;;2.47;2.37;;;18.10;99.90;;;;;;5242884;27;20466;-73
2024/04/13 09:41:19;;;;;;;2.40;2.30;;;18.10;99.90;;;;;;5233543;27;20614;-73
2024/04/13 09:43:45;;;;;;;2.07;2.00;;;18.20;99.90;;;;;;5238917;27;22601;-72
2024/04/13 09:46:14;;;;;;;2.10;2.07;;;18.20;99.90;;;;;;5235647;27;20491;-73
2024/04/13 09:48:40;;;;;;;2.00;1.90;;;18.10;99.90;;;;;;5241808;27;20987;-74
2024/04/13 09:51:08;;;;;;;3.07;2.50;;;18.20;99.90;;;;;;5246404;27;20484;-74
2024/04/13 09:53:35;;;;;;;2.10;2.00;;;18.40;99.90;;;;;;5238619;27;20475;-73
2024/04/13 09:56:04;;;;;;;5.07;2.30;;;18.50;99.90;;;;;;5239476;27;21017;-73
2024/04/13 09:58:33;;;;;;;3.87;2.23;;;18.50;99.90;;;;;;5245120;27;20483;-73
2024/04/13 10:01:04;;;;;;;3.30;2.50;;;18.60;99.90;;;;;;5251645;27;20611;-73
2024/04/13 10:03:30;;;;;;;2.83;2.20;;;18.70;99.90;;;;;;5239329;27;20484;-73
2024/04/13 10:05:59;;;;;;;1.43;1.43;;;18.80;99.90;;;;;;5257886;27;20557;-75
2024/04/13 10:08:28;;;;;;;3.37;3.10;;;18.80;99.90;;;;;;5254104;27;20374;-73
2024/04/13 10:10:59;;;;;;;2.20;1.67;;;18.90;99.90;;;;;;5229626;27;20475;-73
2024/04/13 10:13:31;;;;;;;1.70;1.70;;;19.00;99.90;;;;;;5246146;27;20587;-72
2024/04/13 10:16:03;;;;;;;1.40;1.40;;;19.00;99.90;;;;;;5231622;27;20537;-72
2024/04/13 10:18:29;;;;;;;4.23;2.17;;;19.00;99.90;;;;;;5235209;27;20619;-73
2024/04/13 10:20:58;;;;;;;1.40;1.30;;;19.10;99.90;;;;;;5236876;27;20995;-73
2024/04/13 10:23:24;;;;;;;1.60;1.43;;;19.20;99.90;;;;;;5232931;27;20263;-73
2024/04/13 10:25:59;;;;;;;1.80;1.70;;;19.30;99.90;;;;;;5237612;27;20535;-72
2024/04/13 10:28:25;;;;;;;1.83;1.73;;;19.30;99.90;;;;;;5239159;27;20338;-72
2024/04/13 10:30:55;;;;;;;1.40;1.20;;;19.40;99.90;;;;;;5234957;27;20563;-74
2024/04/13 10:33:26;;;;;;;2.50;1.10;;;19.50;99.90;;;;;;5235789;27;20725;-72
2024/04/13 10:35:59;;;;;;;1.83;1.40;;;19.50;99.90;;;;;;5235641;27;21163;-75
2024/04/13 10:38:27;;;;;;;1.10;1.10;;;19.60;99.90;;;;;;5237234;27;20479;-72
2024/04/13 10:40:55;;;;;;;1.07;1.07;;;19.60;99.90;;;;;;5237404;27;20476;-74
2024/04/13 10:43:23;;;;;;;0.93;0.93;;;19.70;99.90;;;;;;5239202;27;20480;-72
2024/04/13 10:45:56;;;;;;;0.97;0.90;;;19.80;99.90;;;;;;5235121;27;20468;-74
2024/04/13 10:48:27;;;;;;;1.40;1.40;;;19.80;99.90;;;;;;5234842;27;20530;-72
2024/04/13 10:50:56;;;;;;;0.87;0.87;;;19.90;99.90;;;;;;5236507;27;21097;-74
2024/04/13 10:53:23;;;;;;;1.23;1.20;;;20.00;99.90;;;;;;5241281;27;20480;-72
2024/04/13 10:55:52;;;;;;;1.07;0.90;;;20.00;99.90;;;;;;5242131;27;20484;-72
2024/04/13 10:58:19;;;;;;;6.00;2.33;;;20.10;99.90;;;;;;5236127;27;21066;-72
2024/04/13 11:00:49;;;;;;;3.23;1.00;;;20.10;99.90;;;;;;5233335;27;20501;-72
2024/04/13 11:03:16;;;;;;;0.80;0.80;;;20.10;99.90;;;;;;5236369;27;20475;-71
2024/04/13 11:05:48;;;;;;;0.90;0.90;;;20.20;99.90;;;;;;5235289;27;20689;-71
2024/04/13 11:08:13;;;;;;;3.50;1.43;;;20.20;99.90;;;;;;5235962;27;20483;-71
2024/04/13 11:10:42;;;;;;;1.33;1.17;;;20.30;99.90;;;;;;5237511;27;20498;-72
2024/04/13 11:13:09;;;;;;;1.60;1.43;;;20.30;99.90;;;;;;5232581;27;20290;-71
2024/04/13 11:15:37;;;;;;;1.23;1.03;;;20.40;99.90;;;;;;5231721;27;21062;-71
2024/04/13 11:18:03;;;;;;;0.93;0.93;;;20.60;99.90;;;;;;5236870;27;20475;-71
2024/04/13 11:20:33;;;;;;;1.47;1.37;;;20.60;99.90;;;;;;5234773;27;20596;-71
2024/04/13 11:23:02;;;;;;;1.07;0.90;;;20.70;99.90;;;;;;5234109;27;20483;-71
2024/04/13 11:25:30;;;;;;;3.30;1.20;;;20.70;99.90;;;;;;5238500;27;20591;-74
2024/04/13 11:27:57;;;;;;;2.60;2.50;;;20.70;99.90;;;;;;5236670;27;21972;-71
2024/04/13 11:30:26;;;;;;;1.20;1.20;;;20.70;99.90;;;;;;5237399;27;20557;-74
2024/04/13 11:32:52;;;;;;;1.20;1.10;;;20.60;99.90;;;;;;5237121;27;20627;-73
2024/04/13 11:35:21;;;;;;;1.37;1.33;;;20.60;99.90;;;;;;5238953;27;20476;-73
2024/04/13 11:37:55;;;;;;;0.93;0.90;;;20.60;99.90;;;;;;5238283;27;20244;-72
2024/04/13 11:40:26;;;;;;;1.10;1.10;;;20.50;99.90;;;;;;5232177;27;21163;-73
2024/04/13 11:42:52;;;;;;;0.80;0.80;;;20.50;99.90;;;;;;5236096;27;21144;-72
2024/04/13 11:45:22;;;;;;;1.00;1.00;;;20.60;99.90;;;;;;5231371;27;20495;-72
2024/04/13 11:47:49;;;;;;;1.13;1.13;;;20.60;99.90;;;;;;5235222;27;20376;-73
2024/04/13 11:50:18;;;;;;;1.20;1.20;;;20.60;99.90;;;;;;5228346;27;20862;-74
2024/04/13 11:52:44;;;;;;;1.00;1.00;;;20.70;99.90;;;;;;5233777;27;21149;-73
2024/04/13 11:55:12;;;;;;;2.80;0.87;;;20.80;99.90;;;;;;5254700;27;20487;-71
2024/04/13 11:57:47;;;;;;;1.83;1.73;;;20.90;99.90;;;;;;5250127;27;20244;-74
2024/04/13 12:00:16;;;;;;;1.07;1.07;;;21.00;99.90;;;;;;5261262;27;20474;-73
2024/04/13 12:02:43;;;;;;;1.73;0.97;;;21.00;99.90;;;;;;5242858;27;20499;-70
2024/04/13 12:05:12;;;;;;;1.00;1.00;;;20.90;99.90;;;;;;5253610;27;20962;-72
2024/04/13 12:07:38;;;;;;;1.27;1.17;;;21.00;99.90;;;;;;5234850;27;20868;-72
2024/04/13 12:10:07;;;;;;;0.90;0.90;;;21.10;99.90;;;;;;5240564;27;20528;-73
2024/04/13 12:12:33;;;;;;;0.80;0.80;;;21.20;99.90;;;;;;5240626;27;20304;-72
2024/04/13 12:15:04;;;;;;;1.07;1.07;;;21.20;99.90;;;;;;5247146;27;20913;-73
2024/04/13 12:17:30;;;;;;;1.00;1.00;;;21.30;99.90;;;;;;5247662;27;20644;-73
2024/04/13 12:20:00;;;;;;;0.80;0.80;;;21.30;99.90;;;;;;5242880;27;20486;-73
2024/04/13 12:22:26;;;;;;;0.70;0.70;;;21.30;99.90;;;;;;5248568;27;20286;-72
2024/04/13 12:24:54;;;;;;;1.70;1.10;;;21.30;99.90;;;;;;5249571;27;20484;-74
2024/04/13 12:27:20;;;;;;;1.20;0.90;;;21.30;99.90;;;;;;5240977;27;20323;-73
2024/04/13 12:29:48;;;;;;;1.00;0.90;;;21.30;99.90;;;;;;5240797;27;20611;-73
2024/04/13 12:32:18;;;;;;;0.80;0.80;;;21.40;99.90;;;;;;5245685;27;20534;-72
2024/04/13 12:34:47;;;;;;;0.90;0.90;;;21.30;99.90;;;;;;5240743;27;20591;-74
2024/04/13 12:37:13;;;;;;;0.70;0.70;;;21.30;99.90;;;;;;5241206;27;20616;-73
2024/04/13 12:39:42;;;;;;;1.13;1.07;;;21.30;99.90;;;;;;5238332;27;20487;-73
2024/04/13 12:42:09;;;;;;;1.37;1.30;;;21.40;99.90;;;;;;5239800;27;20479;-72
2024/04/13 12:44:37;;;;;;;0.90;0.90;;;21.40;99.90;;;;;;5244563;27;20559;-73
2024/04/13 12:47:04;;;;;;;0.90;0.90;;;21.40;99.90;;;;;;5231452;27;21170;-72
2024/04/13 12:49:35;;;;;;;1.20;1.20;;;21.40;99.90;;;;;;5256933;27;20482;-74
2024/04/13 12:52:01;;;;;;;1.23;1.23;;;21.50;99.90;;;;;;5232388;27;20531;-71
2024/04/13 12:54:29;;;;;;;1.37;1.37;;;21.50;99.90;;;;;;5240053;27;20487;-72
2024/04/13 12:56:55;;;;;;;1.07;1.07;;;21.50;99.90;;;;;;5239765;27;20381;-72
2024/04/13 12:59:23;;;;;;;0.70;0.70;;;21.50;99.90;;;;;;5237230;27;20475;-72
2024/04/13 13:01:49;;;;;;;2.70;1.03;;;21.50;99.90;;;;;;5239950;27;20249;-72
2024/04/13 13:04:17;;;;;;;0.90;0.90;;;21.60;99.90;;;;;;5240093;27;20607;-73
2024/04/13 13:06:46;;;;;;;1.50;1.40;;;21.70;99.90;;;;;;5240028;27;20283;-72
2024/04/13 13:09:14;;;;;;;0.90;0.90;;;21.70;99.90;;;;;;5239791;27;21026;-72
2024/04/13 13:11:40;;;;;;;1.80;1.33;;;21.70;99.90;;;;;;5238046;27;21059;-74
2024/04/13 13:14:08;;;;;;;0.93;0.93;;;21.70;99.90;;;;;;5247075;27;20495;-73
2024/04/13 13:16:34;;;;;;;1.07;1.07;;;21.70;99.90;;;;;;5240763;27;20232;-73
2024/04/13 13:19:03;;;;;;;1.00;1.00;;;21.70;99.90;;;;;;5240126;27;20851;-74
2024/04/13 13:21:29;;;;;;;0.70;0.70;;;21.70;99.90;;;;;;5242004;27;20247;-73
2024/04/13 13:24:00;;;;;;;3.03;1.13;;;21.70;99.90;;;;;;5240148;27;20539;-73
2024/04/13 13:26:26;;;;;;;1.10;1.00;;;21.70;99.90;;;;;;5234614;27;20543;-74
2024/04/13 13:29:00;;;;;;;1.13;1.13;;;21.70;99.90;;;;;;5257669;27;20537;-73
2024/04/13 13:31:26;;;;;;;1.03;0.90;;;21.80;99.90;;;;;;5243556;27;20548;-73
2024/04/13 13:33:54;;;;;;;1.30;1.00;;;21.80;99.90;;;;;;5243787;27;20480;-73
2024/04/13 13:36:20;;;;;;;2.13;0.83;;;21.80;99.90;;;;;;5243173;27;20268;-73
2024/04/13 13:38:50;;;;;;;1.20;1.20;;;21.70;99.90;;;;;;5242411;27;20580;-73
2024/04/13 13:41:18;;;;;;;1.17;1.17;;;21.70;99.90;;;;;;5257674;27;21035;-72
2024/04/13 13:43:46;;;;;;;1.10;1.00;;;21.70;99.90;;;;;;5251880;27;20914;-72
2024/04/13 13:46:12;;;;;;;1.47;1.37;;;21.70;99.90;;;;;;5256022;27;20564;-72
2024/04/13 13:48:41;;;;;;;3.63;1.30;;;21.70;99.90;;;;;;5242718;27;20475;-73
2024/04/13 13:51:07;;;;;;;0.80;0.80;;;21.80;99.90;;;;;;5236146;27;20240;-72
2024/04/13 13:53:35;;;;;;;1.50;1.40;;;21.80;99.90;;;;;;5242279;27;20546;-72
2024/04/13 13:56:01;;;;;;;1.47;1.40;;;21.80;99.90;;;;;;5250074;27;20531;-72
2024/04/13 13:58:32;;;;;;;5.23;1.10;;;21.70;99.90;;;;;;5240894;27;20829;-74
2024/04/13 14:01:03;;;;;;;3.03;1.20;;;21.60;99.90;;;;;;5261190;27;20805;-72
2024/04/13 14:03:31;;;;;;;1.10;1.10;;;21.60;99.90;;;;;;5244295;27;20479;-72
2024/04/13 14:06:00;;;;;;;1.10;1.10;;;21.60;99.90;;;;;;5245271;27;20982;-72
2024/04/13 14:08:28;;;;;;;1.10;1.10;;;21.70;99.90;;;;;;5259094;27;20466;-72
2024/04/13 14:10:54;;;;;;;1.53;1.40;;;21.70;99.90;;;;;;5242060;27;20676;-73
2024/04/13 14:13:22;;;;;;;1.00;1.00;;;21.70;99.90;;;;;;5242477;27;21046;-73
2024/04/13 14:15:51;;;;;;;1.27;1.27;;;21.80;99.90;;;;;;5242372;27;20840;-73
2024/04/13 14:18:20;;;;;;;1.87;1.77;;;21.80;99.90;;;;;;5253603;27;20475;-73
2024/04/13 14:20:45;;;;;;;1.70;1.60;;;21.70;99.90;;;;;;5248305;27;20940;-73
2024/04/13 14:23:14;;;;;;;1.60;1.50;;;21.80;99.90;;;;;;5255678;27;20491;-72
2024/04/13 14:25:40;;;;;;;1.50;1.40;;;21.80;99.90;;;;;;5236619;27;20285;-72
2024/04/13 14:28:09;;;;;;;1.40;1.40;;;21.90;99.90;;;;;;5241882;27;20479;-73
2024/04/13 14:30:34;;;;;;;1.10;1.10;;;21.90;99.90;;;;;;5241951;27;20244;-72
2024/04/13 14:33:07;;;;;;;1.77;1.77;;;21.80;99.90;;;;;;5246762;27;20476;-72
2024/04/13 14:35:33;;;;;;;1.50;1.50;;;21.70;99.90;;;;;;5249113;27;20252;-72
2024/04/13 14:38:04;;;;;;;3.50;1.83;;;21.60;99.90;;;;;;5241932;27;20488;-72
2024/04/13 14:40:30;;;;;;;2.00;1.97;;;21.60;99.90;;;;;;5238171;27;20491;-72
2024/04/13 14:42:58;;;;;;;1.70;1.70;;;21.60;99.90;;;;;;5242198;27;20523;-71
2024/04/13 14:45:24;;;;;;;2.10;2.00;;;21.50;99.90;;;;;;5242271;27;21197;-72
2024/04/13 14:47:52;;;;;;;2.20;2.10;;;21.50;99.90;;;;;;5246342;27;20842;-72
2024/04/13 14:50:20;;;;;;;2.30;2.20;;;21.50;99.90;;;;;;5241578;27;20244;-73
2024/04/13 14:52:49;;;;;;;2.00;1.90;;;21.50;99.90;;;;;;5252785;27;20556;-73
2024/04/13 14:55:15;;;;;;;4.90;1.80;;;21.50;99.90;;;;;;5260649;27;20478;-73
2024/04/13 14:57:45;;;;;;;2.13;1.97;;;21.50;99.90;;;;;;5241755;27;21085;-73
2024/04/13 15:00:14;;;;;;;1.97;1.87;;;21.50;99.90;;;;;;5241660;27;20243;-73
2024/04/13 15:02:40;;;;;;;1.80;1.80;;;21.50;99.90;;;;;;5248802;27;20472;-73
2024/04/13 15:05:08;;;;;;;1.90;1.80;;;21.50;99.90;;;;;;5246010;27;20598;-73
2024/04/13 15:07:36;;;;;;;2.00;1.90;;;21.50;99.90;;;;;;5247794;27;20803;-73
2024/04/13 15:10:05;;;;;;;2.10;2.10;;;21.50;99.90;;;;;;5248820;27;20471;-73
2024/04/13 15:12:31;;;;;;;1.43;1.43;;;21.60;99.90;;;;;;5248675;27;20554;-73
2024/04/13 15:14:59;;;;;;;1.70;1.70;;;21.60;99.90;;;;;;5250520;27;20604;-72
2024/04/13 15:17:25;;;;;;;2.00;1.73;;;21.60;99.90;;;;;;5250664;27;20747;-73
2024/04/13 15:19:53;;;;;;;3.13;2.40;;;21.70;99.90;;;;;;5241382;27;20591;-72
2024/04/13 15:22:19;;;;;;;5.00;1.70;;;21.70;99.90;;;;;;5252905;27;20469;-72
2024/04/13 15:24:50;;;;;;;1.87;1.87;;;21.60;99.90;;;;;;5247671;27;20583;-72
2024/04/13 15:27:16;;;;;;;2.20;2.10;;;21.70;99.90;;;;;;5246324;27;20851;-72
2024/04/13 15:29:44;;;;;;;1.60;1.60;;;21.70;99.90;;;;;;5254047;27;20472;-72
2024/04/13 15:32:10;;;;;;;2.43;2.23;;;21.60;99.90;;;;;;5235200;27;20480;-73
2024/04/13 15:34:39;;;;;;;2.30;2.20;;;21.60;99.90;;;;;;5241216;27;20818;-72
2024/04/13 15:37:05;;;;;;;2.47;2.27;;;21.50;99.90;;;;;;5239667;27;20722;-73
2024/04/13 15:39:33;;;;;;;3.37;3.27;;;21.60;99.90;;;;;;5252891;27;20474;-72
2024/04/13 15:42:02;;;;;;;2.70;2.53;;;21.60;99.90;;;;;;5246536;27;20495;-72
2024/04/13 15:44:30;;;;;;;2.70;2.50;;;21.60;99.90;;;;;;5249869;27;21031;-72
2024/04/13 15:46:56;;;;;;;2.87;2.80;;;21.60;99.90;;;;;;5241351;27;20472;-72
2024/04/13 15:49:24;;;;;;;2.57;2.47;;;21.60;99.90;;;;;;5246152;27;20538;-72
2024/04/13 15:51:50;;;;;;;2.57;2.47;;;21.60;99.90;;;;;;5251644;27;20367;-73
2024/04/13 15:54:18;;;;;;;2.93;2.83;;;21.50;99.90;;;;;;5236513;27;20843;-73
2024/04/13 15:56:44;;;;;;;2.63;2.53;;;21.50;99.90;;;;;;5246390;27;20294;-73
2024/04/13 15:59:15;;;;;;;3.43;3.13;;;21.50;99.90;;;;;;5247221;27;20825;-73
2024/04/13 16:01:40;;;;;;;3.90;3.80;;;21.50;99.90;;;;;;5233628;27;20290;-74
2024/04/13 16:04:09;;;;;;;3.27;3.13;;;21.50;99.90;;;;;;5258205;27;20466;-73
2024/04/13 16:06:35;;;;;;;3.67;3.57;;;21.40;99.90;;;;;;5242149;27;20244;-73
2024/04/13 16:09:03;;;;;;;4.27;4.10;;;21.40;99.90;;;;;;5241923;27;20974;-74
2024/04/13 16:11:29;;;;;;;4.23;4.03;;;21.40;99.90;;;;;;5238105;27;20316;-73
2024/04/13 16:13:57;;;;;;;4.60;4.23;;;21.30;99.90;;;;;;5241721;27;20476;-73
2024/04/13 16:16:28;;;;;;;4.30;4.00;;;21.30;99.90;;;;;;5242291;27;20363;-73
2024/04/13 16:18:56;;;;;;;4.67;4.47;;;21.30;99.90;;;;;;5242995;27;20540;-73
2024/04/13 16:21:22;;;;;;;4.50;4.20;;;21.20;99.90;;;;;;5246284;27;20608;-72
2024/04/13 16:23:50;;;;;;;5.20;4.70;;;21.20;99.90;;;;;;5258292;27;21041;-72
2024/04/13 16:26:16;;;;;;;4.97;4.67;;;21.30;99.90;;;;;;5255787;27;20240;-72
2024/04/13 16:28:44;;;;;;;5.03;4.67;;;21.20;99.90;;;;;;5242814;27;20532;-73
2024/04/13 16:31:10;;;;;;;5.27;4.97;;;21.20;99.90;;;;;;5244118;27;20241;-73
2024/04/13 16:33:41;;;;;;;5.33;5.03;;;21.20;99.90;;;;;;5244698;27;20604;-73
2024/04/13 16:36:09;;;;;;;6.07;5.77;;;21.20;99.90;;;;;;5245473;27;20708;-73
2024/04/13 16:38:37;;;;;;;5.30;5.00;;;21.20;99.90;;;;;;5244874;27;20991;-73
2024/04/13 16:41:03;;;;;;;5.30;4.90;;;21.10;99.90;;;;;;5258391;27;20594;-73
2024/04/13 16:43:32;;;;;;;5.10;4.87;;;21.10;99.90;;;;;;5256489;27;20541;-73
2024/04/13 16:45:58;;;;;;;5.90;5.50;;;21.00;99.90;;;;;;5250587;27;20777;-73
2024/04/13 16:48:26;;;;;;;6.33;6.03;;;21.00;99.90;;;;;;5245466;27;20526;-73
2024/04/13 16:50:59;;;;;;;6.20;5.80;;;21.00;99.90;;;;;;5250364;27;20547;-73